FYGA4: White River At Fayetteville, AR

                                SHEF ID:       FYGA4     White River near Fayetteville, A
STATION TYPE: Stream Gauge

PRECIP STAGE RIV-FLOW WTR-TEMP DIS-OXY PH CONDUCT BAT-LOAD
in ft cfs F mg/l su umho/cm volt
Ccp-Rev Ccp-Rev Ccp-Rev Ccp-Rev Ccp-Rev Ccp-Rev Ccp-Rev Ccp-Rev
(America/Chicago)
12/26 00:00 0.00 4.83 1728 49.10 8.18 7.33 71 12.41
12/26 01:00 0.00 4.79 1686 49.17 7.95 7.33 72 12.41
12/26 02:00 0.00 4.76 1655 49.23 7.73 7.32 72 12.41
12/26 03:00 0.00 4.75 1644 49.32 7.74 7.35 72 12.41
12/26 04:00 0.00 4.73 1624 49.35 7.76 7.29 72 12.41
12/26 05:00 0.00 4.71 1603 49.42 7.84 7.36 72 12.41
12/26 06:00 0.00 4.67 1563 49.48 7.88 7.34 72 12.41
12/26 07:00 0.00 4.65 1543 49.53 7.77 7.37 72 12.41
12/26 08:00 0.00 4.65 1543 49.60 7.83 7.31 72 12.41
12/26 09:00 0.00 4.63 1523 49.68 7.81 7.33 72 12.41
12/26 10:00 0.00 4.60 1493 49.78 7.69 7.37 72 12.81
12/26 11:00 0.00 4.59 1484 50.00 7.59 7.36 72 13.21
12/26 12:00 0.00 4.58 1474 50.13 7.49 7.34 72 13.13
12/26 13:00 0.00 4.56 1455 50.36 7.43 7.37 72 13.68
12/26 14:00 0.00 4.55 1445 50.49 7.41 7.34 72 13.37
12/26 15:00 0.00 4.51 1407 50.54 7.38 7.33 72 13.21
12/26 16:00 0.00 4.52 1416 50.65 7.21 7.36 72 13.21
12/26 17:00 0.00 4.48 1379 50.67 6.94 7.36 72 12.89
12/26 18:00 0.01 4.50 1398 50.70 6.69 7.37 72 12.81
12/26 19:00 0.05 4.50 1398 50.74 6.59 7.35 72 12.81
12/26 20:00 0.01 4.50 1398 50.81 6.51 7.37 72 12.73
12/26 21:00 0.01 4.51 1407 50.92 6.38 7.36 72 12.73
12/26 22:00 0.00 4.49 1388 50.97 6.24 7.34 71 12.73
12/26 23:00 0.01 4.54 1436 51.06 6.08 7.37 71 12.65
Data processed at Fri 27Dec2024 05:10 GMT

Parsing this webpage?

Checkout our new Data API! CWMSDataAPI (CDA)

Timeseries IDs (TSIDs)

TSIDs used from left to right in the data table
FAYE.Precip-Inc.Total.1Hour.1Hour.Ccp-Rev
FAYE.Stage.Inst.1Hour.0.Ccp-Rev
FAYE.Flow.Inst.1Hour.0.Ccp-Rev
FAYE.Temp-Water.Inst.1Hour.0.Ccp-Rev
FAYE.Conc-DO.Inst.1Hour.0.Ccp-Rev
FAYE.pH.Inst.1Hour.0.Ccp-Rev
FAYE.Cond-Water.Inst.1Hour.0.Ccp-Rev
FAYE.Volt-Battery Load.Inst.1Hour.0.Ccp-Rev

                            

All information presented herein is the property of the government of the United States of America and may be revised or deleted at any time without prior notice. Dissemination of this information without the expressed written consent of the Public Affairs Office, Tulsa District U.S. Army Corps of Engineers is strictly prohibited. These data are gathered electronically and, as presented, have NOT undergone any form of quality control. These data are NOT guaranteed to be valid or correct.